sensor_id;sensor_type;location;lat;lon;timestamp;P1;durP1;ratioP1;P2;durP2;ratioP2
37201;SDS011;37799;52.390;6.136;2023-08-12T00:00:10;7.00;;;2.22;;
37201;SDS011;37799;52.390;6.136;2023-08-12T00:02:40;6.50;;;2.20;;
37201;SDS011;37799;52.390;6.136;2023-08-12T00:05:07;5.63;;;1.90;;
37201;SDS011;37799;52.390;6.136;2023-08-12T00:07:33;5.47;;;1.88;;
37201;SDS011;37799;52.390;6.136;2023-08-12T00:10:02;6.07;;;2.38;;
37201;SDS011;37799;52.390;6.136;2023-08-12T00:12:32;5.75;;;2.05;;
37201;SDS011;37799;52.390;6.136;2023-08-12T00:14:58;6.57;;;2.05;;
37201;SDS011;37799;52.390;6.136;2023-08-12T00:17:24;6.85;;;2.30;;
37201;SDS011;37799;52.390;6.136;2023-08-12T00:19:50;8.98;;;2.03;;
37201;SDS011;37799;52.390;6.136;2023-08-12T00:22:15;6.80;;;1.90;;
37201;SDS011;37799;52.390;6.136;2023-08-12T00:24:41;6.65;;;1.85;;
37201;SDS011;37799;52.390;6.136;2023-08-12T00:27:06;6.65;;;2.28;;
37201;SDS011;37799;52.390;6.136;2023-08-12T00:29:33;6.20;;;2.05;;
37201;SDS011;37799;52.390;6.136;2023-08-12T00:31:59;6.78;;;2.30;;
37201;SDS011;37799;52.390;6.136;2023-08-12T00:34:25;7.68;;;2.42;;
37201;SDS011;37799;52.390;6.136;2023-08-12T00:36:50;6.23;;;1.87;;
37201;SDS011;37799;52.390;6.136;2023-08-12T00:39:15;6.93;;;2.20;;
37201;SDS011;37799;52.390;6.136;2023-08-12T00:41:41;8.48;;;2.92;;
37201;SDS011;37799;52.390;6.136;2023-08-12T00:44:06;7.93;;;2.60;;
37201;SDS011;37799;52.390;6.136;2023-08-12T00:46:32;7.20;;;2.50;;
37201;SDS011;37799;52.390;6.136;2023-08-12T00:48:59;6.28;;;2.20;;
37201;SDS011;37799;52.390;6.136;2023-08-12T00:51:24;8.20;;;2.63;;
37201;SDS011;37799;52.390;6.136;2023-08-12T00:53:50;8.52;;;2.63;;
37201;SDS011;37799;52.390;6.136;2023-08-12T00:56:17;9.20;;;2.70;;
37201;SDS011;37799;52.390;6.136;2023-08-12T00:58:42;7.82;;;2.60;;
37201;SDS011;37799;52.390;6.136;2023-08-12T01:01:08;8.90;;;3.30;;
37201;SDS011;37799;52.390;6.136;2023-08-12T01:03:35;8.27;;;3.10;;
37201;SDS011;37799;52.390;6.136;2023-08-12T01:06:02;7.22;;;3.20;;
37201;SDS011;37799;52.390;6.136;2023-08-12T01:08:28;9.48;;;3.17;;
37201;SDS011;37799;52.390;6.136;2023-08-12T01:10:58;7.03;;;2.50;;
37201;SDS011;37799;52.390;6.136;2023-08-12T01:13:34;7.43;;;3.13;;
37201;SDS011;37799;52.390;6.136;2023-08-12T01:16:11;7.43;;;2.75;;
37201;SDS011;37799;52.390;6.136;2023-08-12T01:18:41;8.10;;;3.00;;
37201;SDS011;37799;52.390;6.136;2023-08-12T01:21:07;10.45;;;4.00;;
37201;SDS011;37799;52.390;6.136;2023-08-12T01:23:37;10.90;;;3.53;;
37201;SDS011;37799;52.390;6.136;2023-08-12T01:26:04;10.52;;;4.10;;
37201;SDS011;37799;52.390;6.136;2023-08-12T01:28:29;10.57;;;3.40;;
37201;SDS011;37799;52.390;6.136;2023-08-12T01:31:02;9.23;;;3.53;;
37201;SDS011;37799;52.390;6.136;2023-08-12T01:33:40;10.10;;;3.40;;
37201;SDS011;37799;52.390;6.136;2023-08-12T01:36:16;9.23;;;3.65;;
37201;SDS011;37799;52.390;6.136;2023-08-12T01:38:43;8.18;;;3.17;;
37201;SDS011;37799;52.390;6.136;2023-08-12T01:41:11;8.40;;;3.50;;
37201;SDS011;37799;52.390;6.136;2023-08-12T01:43:39;8.13;;;3.60;;
37201;SDS011;37799;52.390;6.136;2023-08-12T01:46:06;9.50;;;3.42;;
37201;SDS011;37799;52.390;6.136;2023-08-12T01:48:32;9.02;;;3.42;;
37201;SDS011;37799;52.390;6.136;2023-08-12T01:50:57;10.07;;;3.72;;
37201;SDS011;37799;52.390;6.136;2023-08-12T01:53:22;10.57;;;4.03;;
37201;SDS011;37799;52.390;6.136;2023-08-12T01:55:48;10.18;;;3.33;;
37201;SDS011;37799;52.390;6.136;2023-08-12T01:58:14;15.27;;;4.00;;
37201;SDS011;37799;52.390;6.136;2023-08-12T02:00:40;12.95;;;3.53;;
37201;SDS011;37799;52.390;6.136;2023-08-12T02:03:05;9.50;;;4.05;;
37201;SDS011;37799;52.390;6.136;2023-08-12T02:05:32;9.43;;;3.72;;
37201;SDS011;37799;52.390;6.136;2023-08-12T02:07:57;9.55;;;3.75;;
37201;SDS011;37799;52.390;6.136;2023-08-12T02:10:23;10.27;;;3.75;;
37201;SDS011;37799;52.390;6.136;2023-08-12T02:12:48;10.32;;;3.70;;
37201;SDS011;37799;52.390;6.136;2023-08-12T02:15:13;11.10;;;3.55;;
37201;SDS011;37799;52.390;6.136;2023-08-12T02:17:39;8.27;;;3.08;;
37201;SDS011;37799;52.390;6.136;2023-08-12T02:20:04;8.77;;;3.75;;
37201;SDS011;37799;52.390;6.136;2023-08-12T02:22:30;8.88;;;3.45;;
37201;SDS011;37799;52.390;6.136;2023-08-12T02:24:56;9.68;;;3.53;;
37201;SDS011;37799;52.390;6.136;2023-08-12T02:27:21;11.10;;;4.18;;
37201;SDS011;37799;52.390;6.136;2023-08-12T02:29:47;11.77;;;3.97;;
37201;SDS011;37799;52.390;6.136;2023-08-12T02:32:12;7.80;;;3.85;;
37201;SDS011;37799;52.390;6.136;2023-08-12T02:34:37;10.85;;;3.95;;
37201;SDS011;37799;52.390;6.136;2023-08-12T02:37:03;8.68;;;3.88;;
37201;SDS011;37799;52.390;6.136;2023-08-12T02:39:28;8.90;;;3.78;;
37201;SDS011;37799;52.390;6.136;2023-08-12T02:41:55;8.82;;;3.60;;
37201;SDS011;37799;52.390;6.136;2023-08-12T02:44:20;10.43;;;4.03;;
37201;SDS011;37799;52.390;6.136;2023-08-12T02:46:45;10.55;;;3.75;;
37201;SDS011;37799;52.390;6.136;2023-08-12T02:49:11;13.05;;;4.03;;
37201;SDS011;37799;52.390;6.136;2023-08-12T02:51:36;9.57;;;4.30;;
37201;SDS011;37799;52.390;6.136;2023-08-12T02:54:01;10.40;;;4.30;;
37201;SDS011;37799;52.390;6.136;2023-08-12T02:56:27;10.70;;;4.20;;
37201;SDS011;37799;52.390;6.136;2023-08-12T02:58:52;10.15;;;4.07;;
37201;SDS011;37799;52.390;6.136;2023-08-12T03:01:18;14.07;;;5.88;;
37201;SDS011;37799;52.390;6.136;2023-08-12T03:03:44;13.95;;;5.00;;
37201;SDS011;37799;52.390;6.136;2023-08-12T03:06:09;10.02;;;4.35;;
37201;SDS011;37799;52.390;6.136;2023-08-12T03:08:34;11.63;;;4.30;;
37201;SDS011;37799;52.390;6.136;2023-08-12T03:11:00;12.82;;;5.60;;
37201;SDS011;37799;52.390;6.136;2023-08-12T03:13:27;13.23;;;5.18;;
37201;SDS011;37799;52.390;6.136;2023-08-12T03:15:53;14.38;;;5.07;;
37201;SDS011;37799;52.390;6.136;2023-08-12T03:18:18;13.30;;;5.28;;
37201;SDS011;37799;52.390;6.136;2023-08-12T03:20:43;12.80;;;5.05;;
37201;SDS011;37799;52.390;6.136;2023-08-12T03:23:09;13.38;;;5.22;;
37201;SDS011;37799;52.390;6.136;2023-08-12T03:25:34;12.68;;;5.32;;
37201;SDS011;37799;52.390;6.136;2023-08-12T03:27:59;15.00;;;5.95;;
37201;SDS011;37799;52.390;6.136;2023-08-12T03:30:25;14.23;;;5.28;;
37201;SDS011;37799;52.390;6.136;2023-08-12T03:32:51;14.77;;;6.15;;
37201;SDS011;37799;52.390;6.136;2023-08-12T03:35:17;13.38;;;5.82;;
37201;SDS011;37799;52.390;6.136;2023-08-12T03:37:43;13.30;;;5.32;;
37201;SDS011;37799;52.390;6.136;2023-08-12T03:40:08;15.35;;;6.07;;
37201;SDS011;37799;52.390;6.136;2023-08-12T03:42:34;14.82;;;6.28;;
37201;SDS011;37799;52.390;6.136;2023-08-12T03:44:59;12.33;;;5.77;;
37201;SDS011;37799;52.390;6.136;2023-08-12T03:47:24;17.48;;;5.95;;
37201;SDS011;37799;52.390;6.136;2023-08-12T03:49:50;12.55;;;5.45;;
37201;SDS011;37799;52.390;6.136;2023-08-12T03:52:15;12.50;;;6.13;;
37201;SDS011;37799;52.390;6.136;2023-08-12T03:54:41;13.07;;;6.05;;
37201;SDS011;37799;52.390;6.136;2023-08-12T03:57:06;17.23;;;6.85;;
37201;SDS011;37799;52.390;6.136;2023-08-12T03:59:31;14.98;;;6.65;;
37201;SDS011;37799;52.390;6.136;2023-08-12T04:01:57;15.50;;;6.00;;
37201;SDS011;37799;52.390;6.136;2023-08-12T04:04:23;13.65;;;6.30;;
37201;SDS011;37799;52.390;6.136;2023-08-12T04:06:48;14.25;;;6.57;;
37201;SDS011;37799;52.390;6.136;2023-08-12T04:09:16;14.45;;;6.57;;
37201;SDS011;37799;52.390;6.136;2023-08-12T04:11:43;17.38;;;6.68;;
37201;SDS011;37799;52.390;6.136;2023-08-12T04:14:08;16.27;;;7.45;;
37201;SDS011;37799;52.390;6.136;2023-08-12T04:16:34;15.35;;;6.90;;
37201;SDS011;37799;52.390;6.136;2023-08-12T04:18:59;15.07;;;7.25;;
37201;SDS011;37799;52.390;6.136;2023-08-12T04:21:24;18.75;;;8.45;;
37201;SDS011;37799;52.390;6.136;2023-08-12T04:23:50;17.00;;;8.10;;
37201;SDS011;37799;52.390;6.136;2023-08-12T04:26:15;17.83;;;7.95;;
37201;SDS011;37799;52.390;6.136;2023-08-12T04:28:40;18.63;;;8.43;;
37201;SDS011;37799;52.390;6.136;2023-08-12T04:31:06;17.00;;;8.60;;
37201;SDS011;37799;52.390;6.136;2023-08-12T04:33:35;18.58;;;8.18;;
37201;SDS011;37799;52.390;6.136;2023-08-12T04:36:00;19.42;;;8.57;;
37201;SDS011;37799;52.390;6.136;2023-08-12T04:38:25;18.15;;;8.52;;
37201;SDS011;37799;52.390;6.136;2023-08-12T04:40:52;21.33;;;9.38;;
37201;SDS011;37799;52.390;6.136;2023-08-12T04:43:18;16.58;;;7.72;;
37201;SDS011;37799;52.390;6.136;2023-08-12T04:45:44;18.27;;;8.85;;
37201;SDS011;37799;52.390;6.136;2023-08-12T04:48:10;19.08;;;8.82;;
37201;SDS011;37799;52.390;6.136;2023-08-12T04:50:36;19.50;;;9.52;;
37201;SDS011;37799;52.390;6.136;2023-08-12T04:53:01;19.25;;;9.05;;
37201;SDS011;37799;52.390;6.136;2023-08-12T04:55:27;21.33;;;9.23;;
37201;SDS011;37799;52.390;6.136;2023-08-12T04:57:52;24.02;;;10.45;;
37201;SDS011;37799;52.390;6.136;2023-08-12T05:00:19;21.38;;;9.57;;
37201;SDS011;37799;52.390;6.136;2023-08-12T05:02:44;19.63;;;9.80;;
37201;SDS011;37799;52.390;6.136;2023-08-12T05:05:10;19.88;;;10.18;;
37201;SDS011;37799;52.390;6.136;2023-08-12T05:07:35;20.73;;;10.13;;
37201;SDS011;37799;52.390;6.136;2023-08-12T05:10:01;19.48;;;9.48;;
37201;SDS011;37799;52.390;6.136;2023-08-12T05:12:27;19.58;;;9.20;;
37201;SDS011;37799;52.390;6.136;2023-08-12T05:14:52;20.45;;;9.35;;
37201;SDS011;37799;52.390;6.136;2023-08-12T05:17:17;19.23;;;9.45;;
37201;SDS011;37799;52.390;6.136;2023-08-12T05:19:43;20.55;;;10.00;;
37201;SDS011;37799;52.390;6.136;2023-08-12T05:22:08;21.38;;;9.93;;
37201;SDS011;37799;52.390;6.136;2023-08-12T05:24:33;22.05;;;9.82;;
37201;SDS011;37799;52.390;6.136;2023-08-12T05:26:59;22.10;;;9.52;;
37201;SDS011;37799;52.390;6.136;2023-08-12T05:29:24;18.05;;;8.75;;
37201;SDS011;37799;52.390;6.136;2023-08-12T05:31:49;18.25;;;7.82;;
37201;SDS011;37799;52.390;6.136;2023-08-12T05:34:15;19.02;;;9.63;;
37201;SDS011;37799;52.390;6.136;2023-08-12T05:36:40;18.98;;;8.88;;
37201;SDS011;37799;52.390;6.136;2023-08-12T05:39:05;18.05;;;8.93;;
37201;SDS011;37799;52.390;6.136;2023-08-12T05:41:31;22.85;;;8.90;;
37201;SDS011;37799;52.390;6.136;2023-08-12T05:43:56;15.88;;;8.40;;
37201;SDS011;37799;52.390;6.136;2023-08-12T05:46:21;17.48;;;8.07;;
37201;SDS011;37799;52.390;6.136;2023-08-12T05:48:47;15.45;;;7.88;;
37201;SDS011;37799;52.390;6.136;2023-08-12T05:51:12;16.80;;;7.68;;
37201;SDS011;37799;52.390;6.136;2023-08-12T05:53:38;16.27;;;8.02;;
37201;SDS011;37799;52.390;6.136;2023-08-12T05:56:03;15.65;;;7.07;;
37201;SDS011;37799;52.390;6.136;2023-08-12T05:58:29;13.95;;;6.88;;
37201;SDS011;37799;52.390;6.136;2023-08-12T06:00:55;16.17;;;7.47;;
37201;SDS011;37799;52.390;6.136;2023-08-12T06:03:20;16.33;;;7.65;;
37201;SDS011;37799;52.390;6.136;2023-08-12T06:05:46;15.73;;;7.63;;
37201;SDS011;37799;52.390;6.136;2023-08-12T06:08:12;15.15;;;6.75;;
37201;SDS011;37799;52.390;6.136;2023-08-12T06:10:38;16.27;;;6.45;;
37201;SDS011;37799;52.390;6.136;2023-08-12T06:13:03;15.40;;;6.95;;
37201;SDS011;37799;52.390;6.136;2023-08-12T06:15:29;14.70;;;6.25;;
37201;SDS011;37799;52.390;6.136;2023-08-12T06:17:55;13.35;;;6.72;;
37201;SDS011;37799;52.390;6.136;2023-08-12T06:20:20;13.35;;;6.22;;
37201;SDS011;37799;52.390;6.136;2023-08-12T06:22:45;15.13;;;6.65;;
37201;SDS011;37799;52.390;6.136;2023-08-12T06:25:11;13.43;;;6.35;;
37201;SDS011;37799;52.390;6.136;2023-08-12T06:27:36;13.10;;;6.13;;
37201;SDS011;37799;52.390;6.136;2023-08-12T06:30:02;14.45;;;6.57;;
37201;SDS011;37799;52.390;6.136;2023-08-12T06:32:27;14.65;;;6.00;;
37201;SDS011;37799;52.390;6.136;2023-08-12T06:34:53;13.23;;;6.55;;
37201;SDS011;37799;52.390;6.136;2023-08-12T06:37:18;14.13;;;6.95;;
37201;SDS011;37799;52.390;6.136;2023-08-12T06:39:44;13.63;;;5.97;;
37201;SDS011;37799;52.390;6.136;2023-08-12T06:42:09;13.13;;;6.88;;
37201;SDS011;37799;52.390;6.136;2023-08-12T06:44:34;12.90;;;6.05;;
37201;SDS011;37799;52.390;6.136;2023-08-12T06:47:00;15.32;;;6.93;;
37201;SDS011;37799;52.390;6.136;2023-08-12T06:49:25;13.10;;;6.05;;
37201;SDS011;37799;52.390;6.136;2023-08-12T06:51:50;13.18;;;5.68;;
37201;SDS011;37799;52.390;6.136;2023-08-12T06:54:16;13.98;;;6.07;;
37201;SDS011;37799;52.390;6.136;2023-08-12T06:56:41;13.13;;;6.22;;
37201;SDS011;37799;52.390;6.136;2023-08-12T06:59:07;12.13;;;5.80;;
37201;SDS011;37799;52.390;6.136;2023-08-12T07:01:32;13.25;;;5.75;;
37201;SDS011;37799;52.390;6.136;2023-08-12T07:03:57;14.85;;;6.18;;
37201;SDS011;37799;52.390;6.136;2023-08-12T07:06:23;11.77;;;5.32;;
37201;SDS011;37799;52.390;6.136;2023-08-12T07:08:48;13.18;;;5.70;;
37201;SDS011;37799;52.390;6.136;2023-08-12T07:11:13;13.02;;;6.20;;
37201;SDS011;37799;52.390;6.136;2023-08-12T07:13:39;14.23;;;5.80;;
37201;SDS011;37799;52.390;6.136;2023-08-12T07:16:04;9.95;;;4.57;;
37201;SDS011;37799;52.390;6.136;2023-08-12T07:18:29;9.23;;;4.13;;
37201;SDS011;37799;52.390;6.136;2023-08-12T07:20:56;9.38;;;4.18;;
37201;SDS011;37799;52.390;6.136;2023-08-12T07:23:23;8.63;;;4.00;;
37201;SDS011;37799;52.390;6.136;2023-08-12T07:25:49;9.25;;;4.07;;
37201;SDS011;37799;52.390;6.136;2023-08-12T07:28:15;8.23;;;3.85;;
37201;SDS011;37799;52.390;6.136;2023-08-12T07:30:40;10.05;;;4.03;;
37201;SDS011;37799;52.390;6.136;2023-08-12T07:33:05;9.02;;;3.60;;
37201;SDS011;37799;52.390;6.136;2023-08-12T07:35:31;9.48;;;3.67;;
37201;SDS011;37799;52.390;6.136;2023-08-12T07:37:57;11.90;;;3.97;;
37201;SDS011;37799;52.390;6.136;2023-08-12T07:40:22;10.43;;;4.00;;
37201;SDS011;37799;52.390;6.136;2023-08-12T07:42:47;9.27;;;4.32;;
37201;SDS011;37799;52.390;6.136;2023-08-12T07:45:13;9.63;;;4.32;;
37201;SDS011;37799;52.390;6.136;2023-08-12T07:47:38;8.82;;;4.05;;
37201;SDS011;37799;52.390;6.136;2023-08-12T07:50:04;8.85;;;3.92;;
37201;SDS011;37799;52.390;6.136;2023-08-12T07:52:30;9.25;;;3.80;;
37201;SDS011;37799;52.390;6.136;2023-08-12T07:54:55;9.93;;;4.40;;
37201;SDS011;37799;52.390;6.136;2023-08-12T07:57:21;9.40;;;3.92;;
37201;SDS011;37799;52.390;6.136;2023-08-12T07:59:49;10.15;;;4.05;;
37201;SDS011;37799;52.390;6.136;2023-08-12T08:02:17;10.68;;;3.65;;
37201;SDS011;37799;52.390;6.136;2023-08-12T08:04:42;8.27;;;3.40;;
37201;SDS011;37799;52.390;6.136;2023-08-12T08:07:08;8.30;;;3.13;;
37201;SDS011;37799;52.390;6.136;2023-08-12T08:09:34;8.20;;;3.50;;
37201;SDS011;37799;52.390;6.136;2023-08-12T08:11:59;11.30;;;3.17;;
37201;SDS011;37799;52.390;6.136;2023-08-12T08:14:25;7.18;;;2.42;;
37201;SDS011;37799;52.390;6.136;2023-08-12T08:16:52;7.13;;;2.60;;
37201;SDS011;37799;52.390;6.136;2023-08-12T08:19:18;6.05;;;2.33;;
37201;SDS011;37799;52.390;6.136;2023-08-12T08:21:43;6.20;;;2.30;;
37201;SDS011;37799;52.390;6.136;2023-08-12T08:24:09;7.32;;;2.92;;
37201;SDS011;37799;52.390;6.136;2023-08-12T08:26:36;5.80;;;1.95;;
37201;SDS011;37799;52.390;6.136;2023-08-12T08:29:01;5.15;;;1.48;;
37201;SDS011;37799;52.390;6.136;2023-08-12T08:31:27;4.57;;;1.17;;
37201;SDS011;37799;52.390;6.136;2023-08-12T08:33:52;4.15;;;1.20;;
37201;SDS011;37799;52.390;6.136;2023-08-12T08:36:17;5.72;;;1.05;;
37201;SDS011;37799;52.390;6.136;2023-08-12T08:38:43;4.78;;;1.25;;
37201;SDS011;37799;52.390;6.136;2023-08-12T08:41:08;6.13;;;1.48;;
37201;SDS011;37799;52.390;6.136;2023-08-12T08:43:35;3.97;;;1.20;;
37201;SDS011;37799;52.390;6.136;2023-08-12T08:46:04;2.78;;;0.82;;
37201;SDS011;37799;52.390;6.136;2023-08-12T08:48:31;3.80;;;0.80;;
37201;SDS011;37799;52.390;6.136;2023-08-12T08:50:57;2.78;;;0.80;;
37201;SDS011;37799;52.390;6.136;2023-08-12T08:53:26;4.93;;;1.10;;
37201;SDS011;37799;52.390;6.136;2023-08-12T08:55:51;4.03;;;0.75;;
37201;SDS011;37799;52.390;6.136;2023-08-12T08:58:18;4.47;;;1.00;;
37201;SDS011;37799;52.390;6.136;2023-08-12T09:00:43;3.10;;;0.70;;
37201;SDS011;37799;52.390;6.136;2023-08-12T09:03:09;3.53;;;0.77;;
37201;SDS011;37799;52.390;6.136;2023-08-12T09:05:35;3.45;;;0.70;;
37201;SDS011;37799;52.390;6.136;2023-08-12T09:08:03;3.28;;;0.68;;
37201;SDS011;37799;52.390;6.136;2023-08-12T09:10:31;2.95;;;0.60;;
37201;SDS011;37799;52.390;6.136;2023-08-12T09:12:57;3.80;;;0.88;;
37201;SDS011;37799;52.390;6.136;2023-08-12T09:15:23;2.95;;;0.73;;
37201;SDS011;37799;52.390;6.136;2023-08-12T09:17:49;4.20;;;0.77;;
37201;SDS011;37799;52.390;6.136;2023-08-12T09:20:14;3.35;;;0.70;;
37201;SDS011;37799;52.390;6.136;2023-08-12T09:22:40;3.28;;;0.70;;
37201;SDS011;37799;52.390;6.136;2023-08-12T09:25:06;3.58;;;0.70;;
37201;SDS011;37799;52.390;6.136;2023-08-12T09:27:33;3.13;;;0.73;;
37201;SDS011;37799;52.390;6.136;2023-08-12T09:30:02;3.20;;;0.70;;
37201;SDS011;37799;52.390;6.136;2023-08-12T09:32:28;1.52;;;0.57;;
37201;SDS011;37799;52.390;6.136;2023-08-12T09:34:54;2.92;;;0.50;;
37201;SDS011;37799;52.390;6.136;2023-08-12T09:37:20;2.13;;;0.50;;
37201;SDS011;37799;52.390;6.136;2023-08-12T09:39:47;1.48;;;0.45;;
37201;SDS011;37799;52.390;6.136;2023-08-12T09:42:13;2.50;;;0.60;;
37201;SDS011;37799;52.390;6.136;2023-08-12T09:44:40;1.65;;;0.50;;
37201;SDS011;37799;52.390;6.136;2023-08-12T09:47:06;4.28;;;0.75;;
37201;SDS011;37799;52.390;6.136;2023-08-12T09:49:35;2.15;;;0.52;;
37201;SDS011;37799;52.390;6.136;2023-08-12T09:52:02;1.75;;;0.40;;
37201;SDS011;37799;52.390;6.136;2023-08-12T09:54:30;1.73;;;0.40;;
37201;SDS011;37799;52.390;6.136;2023-08-12T09:56:57;1.67;;;0.43;;
37201;SDS011;37799;52.390;6.136;2023-08-12T09:59:24;1.40;;;0.40;;
37201;SDS011;37799;52.390;6.136;2023-08-12T10:01:54;1.97;;;0.37;;
37201;SDS011;37799;52.390;6.136;2023-08-12T10:04:21;2.03;;;0.45;;
37201;SDS011;37799;52.390;6.136;2023-08-12T10:06:49;1.77;;;0.45;;
37201;SDS011;37799;52.390;6.136;2023-08-12T10:09:15;1.88;;;0.50;;
37201;SDS011;37799;52.390;6.136;2023-08-12T10:11:45;3.33;;;0.93;;
37201;SDS011;37799;52.390;6.136;2023-08-12T10:14:11;2.70;;;0.70;;
37201;SDS011;37799;52.390;6.136;2023-08-12T10:16:37;2.15;;;0.40;;
37201;SDS011;37799;52.390;6.136;2023-08-12T10:19:04;1.77;;;0.60;;
37201;SDS011;37799;52.390;6.136;2023-08-12T10:21:31;4.20;;;0.82;;
37201;SDS011;37799;52.390;6.136;2023-08-12T10:24:00;2.53;;;0.70;;
37201;SDS011;37799;52.390;6.136;2023-08-12T10:26:28;1.83;;;0.60;;
37201;SDS011;37799;52.390;6.136;2023-08-12T10:28:54;1.75;;;0.60;;
37201;SDS011;37799;52.390;6.136;2023-08-12T10:31:20;1.52;;;0.40;;
37201;SDS011;37799;52.390;6.136;2023-08-12T10:33:45;1.40;;;0.40;;
37201;SDS011;37799;52.390;6.136;2023-08-12T10:36:15;1.38;;;0.40;;
37201;SDS011;37799;52.390;6.136;2023-08-12T10:38:41;0.93;;;0.20;;
37201;SDS011;37799;52.390;6.136;2023-08-12T10:41:19;1.05;;;0.40;;
37201;SDS011;37799;52.390;6.136;2023-08-12T10:46:29;0.95;;;0.20;;
37201;SDS011;37799;52.390;6.136;2023-08-12T10:49:18;0.88;;;0.38;;
37201;SDS011;37799;52.390;6.136;2023-08-12T10:51:50;0.75;;;0.10;;
37201;SDS011;37799;52.390;6.136;2023-08-12T10:54:19;0.28;;;0.10;;
37201;SDS011;37799;52.390;6.136;2023-08-12T11:02:21;0.38;;;0.15;;
37201;SDS011;37799;52.390;6.136;2023-08-12T11:04:51;0.73;;;0.20;;
37201;SDS011;37799;52.390;6.136;2023-08-12T11:07:43;1.85;;;0.55;;
37201;SDS011;37799;52.390;6.136;2023-08-12T11:10:24;1.25;;;0.40;;
37201;SDS011;37799;52.390;6.136;2023-08-12T11:15:16;3.03;;;0.70;;
37201;SDS011;37799;52.390;6.136;2023-08-12T11:17:42;2.22;;;0.80;;
37201;SDS011;37799;52.390;6.136;2023-08-12T11:20:11;3.13;;;1.05;;
37201;SDS011;37799;52.390;6.136;2023-08-12T11:22:41;2.53;;;0.98;;
37201;SDS011;37799;52.390;6.136;2023-08-12T11:25:09;3.17;;;0.90;;
37201;SDS011;37799;52.390;6.136;2023-08-12T11:27:36;2.03;;;0.65;;
37201;SDS011;37799;52.390;6.136;2023-08-12T11:30:11;3.22;;;0.80;;
37201;SDS011;37799;52.390;6.136;2023-08-12T11:32:42;2.97;;;0.60;;
37201;SDS011;37799;52.390;6.136;2023-08-12T11:35:09;2.78;;;0.60;;
37201;SDS011;37799;52.390;6.136;2023-08-12T11:37:36;2.38;;;0.55;;
37201;SDS011;37799;52.390;6.136;2023-08-12T11:40:03;2.90;;;0.60;;
37201;SDS011;37799;52.390;6.136;2023-08-12T11:42:30;6.95;;;0.50;;
37201;SDS011;37799;52.390;6.136;2023-08-12T11:44:55;1.88;;;0.50;;
37201;SDS011;37799;52.390;6.136;2023-08-12T11:47:21;3.10;;;0.77;;
37201;SDS011;37799;52.390;6.136;2023-08-12T11:49:46;2.38;;;0.47;;
37201;SDS011;37799;52.390;6.136;2023-08-12T11:52:12;3.22;;;0.40;;
37201;SDS011;37799;52.390;6.136;2023-08-12T11:54:38;4.63;;;0.50;;
37201;SDS011;37799;52.390;6.136;2023-08-12T11:57:04;2.70;;;0.47;;
37201;SDS011;37799;52.390;6.136;2023-08-12T11:59:30;1.85;;;0.52;;
37201;SDS011;37799;52.390;6.136;2023-08-12T12:01:55;4.00;;;0.40;;
37201;SDS011;37799;52.390;6.136;2023-08-12T12:04:21;3.15;;;0.40;;
37201;SDS011;37799;52.390;6.136;2023-08-12T12:06:47;2.40;;;0.73;;
37201;SDS011;37799;52.390;6.136;2023-08-12T12:09:15;4.55;;;0.50;;
37201;SDS011;37799;52.390;6.136;2023-08-12T12:11:43;2.22;;;0.30;;
37201;SDS011;37799;52.390;6.136;2023-08-12T12:14:09;3.55;;;0.60;;
37201;SDS011;37799;52.390;6.136;2023-08-12T12:16:42;3.67;;;0.50;;
37201;SDS011;37799;52.390;6.136;2023-08-12T12:19:09;2.08;;;0.40;;
37201;SDS011;37799;52.390;6.136;2023-08-12T12:21:39;2.13;;;0.30;;
37201;SDS011;37799;52.390;6.136;2023-08-12T12:24:06;3.10;;;0.90;;
37201;SDS011;37799;52.390;6.136;2023-08-12T12:26:32;2.05;;;0.40;;
37201;SDS011;37799;52.390;6.136;2023-08-12T12:28:57;2.03;;;0.45;;
37201;SDS011;37799;52.390;6.136;2023-08-12T12:31:23;4.57;;;0.70;;
37201;SDS011;37799;52.390;6.136;2023-08-12T12:33:48;5.18;;;0.50;;
37201;SDS011;37799;52.390;6.136;2023-08-12T12:36:13;3.93;;;0.60;;
37201;SDS011;37799;52.390;6.136;2023-08-12T12:38:38;3.97;;;0.53;;
37201;SDS011;37799;52.390;6.136;2023-08-12T12:41:04;4.50;;;0.50;;
37201;SDS011;37799;52.390;6.136;2023-08-12T12:43:29;7.10;;;0.77;;
37201;SDS011;37799;52.390;6.136;2023-08-12T12:45:55;5.85;;;0.60;;
37201;SDS011;37799;52.390;6.136;2023-08-12T12:48:20;2.17;;;0.30;;
37201;SDS011;37799;52.390;6.136;2023-08-12T12:50:45;3.85;;;0.57;;
37201;SDS011;37799;52.390;6.136;2023-08-12T12:53:11;3.08;;;0.40;;
37201;SDS011;37799;52.390;6.136;2023-08-12T12:55:36;3.40;;;0.50;;
37201;SDS011;37799;52.390;6.136;2023-08-12T12:58:02;2.53;;;0.40;;
37201;SDS011;37799;52.390;6.136;2023-08-12T13:00:27;2.28;;;0.30;;
37201;SDS011;37799;52.390;6.136;2023-08-12T13:02:52;4.60;;;0.50;;
37201;SDS011;37799;52.390;6.136;2023-08-12T13:05:18;3.10;;;0.30;;
37201;SDS011;37799;52.390;6.136;2023-08-12T13:07:43;3.70;;;0.40;;
37201;SDS011;37799;52.390;6.136;2023-08-12T13:10:09;3.42;;;0.32;;
37201;SDS011;37799;52.390;6.136;2023-08-12T13:12:34;5.50;;;0.82;;
37201;SDS011;37799;52.390;6.136;2023-08-12T13:14:59;3.33;;;0.43;;
37201;SDS011;37799;52.390;6.136;2023-08-12T13:17:25;5.43;;;0.40;;
37201;SDS011;37799;52.390;6.136;2023-08-12T13:19:50;6.75;;;0.40;;
37201;SDS011;37799;52.390;6.136;2023-08-12T13:22:16;2.87;;;0.30;;
37201;SDS011;37799;52.390;6.136;2023-08-12T13:24:41;6.22;;;0.47;;
37201;SDS011;37799;52.390;6.136;2023-08-12T13:27:07;3.72;;;0.40;;
37201;SDS011;37799;52.390;6.136;2023-08-12T13:29:33;3.85;;;0.40;;
37201;SDS011;37799;52.390;6.136;2023-08-12T13:31:58;2.53;;;0.25;;
37201;SDS011;37799;52.390;6.136;2023-08-12T13:34:23;5.65;;;0.63;;
37201;SDS011;37799;52.390;6.136;2023-08-12T13:36:49;4.47;;;0.40;;
37201;SDS011;37799;52.390;6.136;2023-08-12T13:39:15;3.92;;;0.30;;
37201;SDS011;37799;52.390;6.136;2023-08-12T13:41:40;5.85;;;0.38;;
37201;SDS011;37799;52.390;6.136;2023-08-12T13:44:06;1.90;;;0.25;;
37201;SDS011;37799;52.390;6.136;2023-08-12T13:46:31;2.00;;;0.20;;
37201;SDS011;37799;52.390;6.136;2023-08-12T13:48:56;4.30;;;0.80;;
37201;SDS011;37799;52.390;6.136;2023-08-12T13:51:22;3.10;;;0.30;;
37201;SDS011;37799;52.390;6.136;2023-08-12T13:53:47;3.20;;;0.38;;
37201;SDS011;37799;52.390;6.136;2023-08-12T13:56:13;3.75;;;0.40;;
37201;SDS011;37799;52.390;6.136;2023-08-12T13:58:38;3.10;;;0.47;;
37201;SDS011;37799;52.390;6.136;2023-08-12T14:01:04;2.88;;;0.25;;
37201;SDS011;37799;52.390;6.136;2023-08-12T14:03:29;4.22;;;0.43;;
37201;SDS011;37799;52.390;6.136;2023-08-12T14:05:55;3.00;;;0.40;;
37201;SDS011;37799;52.390;6.136;2023-08-12T14:08:21;5.55;;;0.43;;
37201;SDS011;37799;52.390;6.136;2023-08-12T14:10:46;3.28;;;0.30;;
37201;SDS011;37799;52.390;6.136;2023-08-12T14:13:12;5.00;;;0.40;;
37201;SDS011;37799;52.390;6.136;2023-08-12T14:15:38;3.58;;;0.40;;
37201;SDS011;37799;52.390;6.136;2023-08-12T14:18:04;2.67;;;0.27;;
37201;SDS011;37799;52.390;6.136;2023-08-12T14:20:29;3.40;;;0.50;;
37201;SDS011;37799;52.390;6.136;2023-08-12T14:22:54;1.42;;;0.28;;
37201;SDS011;37799;52.390;6.136;2023-08-12T14:25:20;3.92;;;0.55;;
37201;SDS011;37799;52.390;6.136;2023-08-12T14:27:45;2.67;;;0.22;;
37201;SDS011;37799;52.390;6.136;2023-08-12T14:30:11;3.00;;;0.40;;
37201;SDS011;37799;52.390;6.136;2023-08-12T14:32:36;4.38;;;0.50;;
37201;SDS011;37799;52.390;6.136;2023-08-12T14:35:03;2.97;;;0.30;;
37201;SDS011;37799;52.390;6.136;2023-08-12T14:37:28;4.13;;;0.50;;
37201;SDS011;37799;52.390;6.136;2023-08-12T14:39:54;1.73;;;0.22;;
37201;SDS011;37799;52.390;6.136;2023-08-12T14:42:20;4.70;;;1.25;;
37201;SDS011;37799;52.390;6.136;2023-08-12T14:44:45;3.40;;;0.55;;
37201;SDS011;37799;52.390;6.136;2023-08-12T14:47:10;3.40;;;0.40;;